Breckenridge, TX

3:45 AM CDT on September 25, 2016 (GMT -0500)
West Breckenridge | | Change Station

Elev 1263 ft 32.75 °N, 98.93 °W | Updated 10 seconds ago

Light Rain
Light Rain
68.4 °F
Feels Like 68.4 °F
N
0.0
Wind Variable Wind from NE
Gusts 1.0 mph

Today
High -- | Low -- °F
--% Chance of Precip.
Yesterday
High -- | Low -- °F
Precip. -- in
Pressure 30.04 in
Visibility 10.0 miles
Clouds Scattered Clouds 400 ft
Scattered Clouds 7000 ft
Overcast 8500 ft
Dew Point 67 °F
Humidity 96%
Rainfall 0.03 in
Snow Depth Not available.
7:26 AM 7:27 PM
Waning Crescent, 29% visible
METAR KBKD 250830Z AUTO 12003KT 10SM -RA SCT004 SCT070 OVC085 21/21 A3004 RMK AO2 LTG DSNT S AND SW T02130210
Pressure 30.04 in
Visibility 10.0 miles
Clouds Scattered Clouds 400 ft
Scattered Clouds 7000 ft
Overcast 8500 ft
Dew Point 67 °F
Humidity 96%
Rainfall 0.03 in
Snow Depth Not available.
7:26 AM 7:27 PM
Waning Crescent, 29% visible
METAR KBKD 250830Z AUTO 12003KT 10SM -RA SCT004 SCT070 OVC085 21/21 A3004 RMK AO2 LTG DSNT S AND SW T02130210

10-Day Weather Forecast

Almanac

Astronomy

Sep. 25, 2016 Rise Set
Actual Time
Civil Twilight
Nautical Twilight
Astronomical Twilight
Moon
Length of Visible Light
Length of Day
Tomorrow will be .
, % of the Moon is Illuminated

Today's Extremes

State Highs State Lows

Community

WunderPhotos

Upload Photos

1,941,554 photos uploaded!

WunderBlog® & News

Nearby

Air Quality

  Air Quality AQ Index Pollutant
Not available.

Snow Depth

Station Depth Elevation

Earthquake Activity

City Distance Mag. Time & Date
Minimum magnitude displayed is 2.5.

Coastal Water Temperatures

Place Temperature

Stations

Nearby Weather Stations

Station Location Temp. Windchill Dew Point Humidity Wind Precip. Elev Updated Type
                   

Watches & Warnings

There are currently no watches in effect.